createdAt,value
2022-08-26T00:00:01.143Z,97286.88
2022-08-26T00:05:05.036Z,97317.44
2022-08-26T00:10:08.575Z,97263.78
2022-08-26T00:15:15.056Z,97324.16
2022-08-26T00:20:23.044Z,97259.22
2022-08-26T00:25:26.946Z,97303.44
2022-08-26T00:30:31.140Z,97305.81
2022-08-26T00:35:36.180Z,97299.69
2022-08-26T00:40:48.790Z,97297.84
2022-08-26T00:45:59.622Z,97307.91
2022-08-26T00:51:15.605Z,97210.50
2022-08-26T00:56:44.149Z,97283.66
2022-08-26T01:01:49.825Z,97179.91
2022-08-26T01:06:54.616Z,97307.47
2022-08-26T01:12:00.060Z,97305.44
2022-08-26T01:17:05.158Z,97318.44
2022-08-26T01:22:22.567Z,97309.81
2022-08-26T01:27:33.614Z,97239.25
2022-08-26T01:32:38.937Z,97273.41
2022-08-26T01:37:42.161Z,97241.97
2022-08-26T01:42:45.527Z,97280.69
2022-08-26T01:47:56.912Z,97251.13
2022-08-26T01:53:07.108Z,97197.56
2022-08-26T01:58:25.592Z,97290.13
2022-08-26T02:03:30.164Z,97221.75
2022-08-26T02:08:45.305Z,97286.06
2022-08-26T02:13:50.595Z,97291.38
2022-08-26T02:18:54.617Z,97206.09
2022-08-26T02:23:58.012Z,97298.63
2022-08-26T02:29:07.680Z,97293.53
2022-08-26T02:34:13.735Z,97282.00
2022-08-26T02:39:22.259Z,97210.88
2022-08-26T02:44:25.520Z,97287.34
2022-08-26T02:49:29.838Z,97273.84
2022-08-26T02:54:32.508Z,97276.31
2022-08-26T02:59:36.899Z,97086.44
2022-08-26T03:04:40.606Z,97110.47
2022-08-26T03:10:01.651Z,97271.56
2022-08-26T03:15:17.634Z,97269.59
2022-08-26T03:20:20.809Z,97275.94
2022-08-26T03:25:24.020Z,97276.34
2022-08-26T03:30:45.328Z,97264.38
2022-08-26T03:35:50.516Z,97274.63
2022-08-26T03:40:53.458Z,97280.72
2022-08-26T03:45:56.147Z,97265.41
2022-08-26T03:50:59.972Z,97185.44
2022-08-26T03:56:07.365Z,97187.53
2022-08-26T04:01:09.922Z,97265.84
2022-08-26T04:06:13.388Z,97292.91
2022-08-26T04:11:19.792Z,97303.16
2022-08-26T04:16:22.669Z,97295.56
2022-08-26T04:21:26.504Z,97307.50
2022-08-26T04:26:29.488Z,97275.88
2022-08-26T04:31:32.243Z,97305.50
2022-08-26T04:36:35.723Z,97271.19
2022-08-26T04:41:40.154Z,97313.13
2022-08-26T04:46:43.839Z,97304.72
2022-08-26T04:51:47.958Z,97282.34
2022-08-26T04:56:51.894Z,97252.03
2022-08-26T05:01:58.116Z,97209.13
2022-08-26T05:07:02.869Z,97293.06
2022-08-26T05:12:06.005Z,97294.22
2022-08-26T05:17:09.073Z,97228.59
2022-08-26T05:22:13.263Z,97281.50
2022-08-26T05:27:16.000Z,97113.72
2022-08-26T05:32:20.383Z,97276.53
2022-08-26T05:37:23.383Z,97259.44
2022-08-26T05:42:26.352Z,97263.16
2022-08-26T05:47:30.219Z,97254.84
2022-08-26T05:52:35.704Z,97175.69
2022-08-26T05:57:40.566Z,97174.22
2022-08-26T06:02:48.408Z,97222.81
2022-08-26T06:08:09.978Z,97142.72
2022-08-26T06:13:13.661Z,97275.53
2022-08-26T06:18:21.108Z,97229.59
2022-08-26T06:23:55.903Z,97258.81
2022-08-26T06:28:59.982Z,97260.06
2022-08-26T06:34:10.546Z,97241.28
2022-08-26T06:39:16.590Z,97096.59
2022-08-26T06:44:19.501Z,97240.66
2022-08-26T06:49:25.838Z,97086.84
2022-08-26T06:54:33.198Z,97229.31
2022-08-26T06:59:36.241Z,97088.88
2022-08-26T07:04:39.479Z,97200.31
2022-08-26T07:09:42.213Z,97178.47
2022-08-26T07:14:47.478Z,97106.81
2022-08-26T07:19:51.128Z,97263.56
2022-08-26T07:24:55.737Z,97269.50
2022-08-26T07:29:58.602Z,97187.53
2022-08-26T07:35:01.309Z,97227.94
2022-08-26T07:40:05.522Z,97241.03
2022-08-26T07:45:08.739Z,97262.59
2022-08-26T07:50:13.404Z,97264.44
2022-08-26T07:55:18.490Z,97245.47
2022-08-26T08:00:22.625Z,97139.03
2022-08-26T08:05:33.563Z,97249.13
2022-08-26T08:10:38.060Z,97193.44
2022-08-26T08:15:41.757Z,97165.66
2022-08-26T08:20:59.273Z,97208.81
2022-08-26T08:26:10.149Z,97233.47
2022-08-26T08:31:52.573Z,97219.09
2022-08-26T08:36:50.108Z,97230.09
2022-08-26T08:42:28.038Z,97259.22
2022-08-26T08:47:36.728Z,97247.03
2022-08-26T08:52:42.890Z,97178.59
2022-08-26T08:58:03.289Z,97257.28
2022-08-26T09:03:30.661Z,97254.38
2022-08-26T09:08:36.687Z,97203.88
2022-08-26T11:44:26.446Z,97159.66
2022-08-26T11:49:32.815Z,97149.16
2022-08-26T11:54:36.855Z,97059.25
2022-08-26T11:59:42.407Z,97049.06
2022-08-26T12:04:49.597Z,97097.47
2022-08-26T12:10:02.273Z,97122.97
2022-08-26T12:15:19.592Z,97117.50
2022-08-26T12:20:49.152Z,97113.41
2022-08-26T12:25:55.317Z,97108.66
2022-08-26T12:31:03.993Z,97102.66
2022-08-26T12:36:08.324Z,97086.56
2022-08-26T12:41:11.696Z,97073.91
2022-08-26T12:46:18.845Z,97092.91
2022-08-26T12:51:27.775Z,97083.38
2022-08-26T12:56:37.654Z,96901.38
2022-08-26T13:01:45.582Z,97062.03
2022-08-26T13:16:23.759Z,97049.22
2022-08-26T13:26:12.933Z,97012.84
2022-08-26T13:31:17.269Z,97034.59
2022-08-26T13:36:21.875Z,97005.31
2022-08-26T13:41:29.334Z,96941.16
2022-08-26T13:46:33.657Z,96987.44
2022-08-26T13:51:38.527Z,96999.31
2022-08-26T14:01:50.021Z,97000.81
2022-08-26T14:11:54.087Z,96939.78
2022-08-26T14:21:43.733Z,96816.44
2022-08-26T14:26:49.561Z,96787.41
2022-08-26T14:41:32.337Z,96983.81
2022-08-26T14:46:51.087Z,96982.78
2022-08-26T14:51:55.224Z,96953.50
2022-08-26T14:57:04.628Z,96941.63
2022-08-26T15:44:59.615Z,96979.91
2022-08-26T15:50:02.805Z,96970.78
2022-08-26T15:55:06.988Z,96955.63
2022-08-26T16:00:11.361Z,96994.13
2022-08-26T16:05:14.590Z,96968.13
2022-08-26T16:10:19.479Z,96997.50
2022-08-26T16:15:22.744Z,96998.75
2022-08-26T16:20:26.950Z,96989.03
2022-08-26T16:25:31.334Z,96881.84
2022-08-26T16:30:34.470Z,97000.22
2022-08-26T16:35:37.889Z,97000.94
2022-08-26T16:40:42.026Z,96869.09
2022-08-26T16:45:45.167Z,97016.75
2022-08-26T16:50:48.426Z,97024.06
2022-08-26T16:55:52.176Z,96956.31
2022-08-26T17:00:55.548Z,96844.81
2022-08-26T17:05:58.653Z,96830.38
2022-08-26T17:11:02.952Z,96985.94
2022-08-26T17:16:08.494Z,96877.09
2022-08-26T17:21:14.196Z,97032.56
2022-08-26T17:26:17.512Z,96949.31
2022-08-26T17:31:22.412Z,97049.63
2022-08-26T17:36:28.049Z,96873.81
2022-08-26T17:41:31.603Z,97049.97
2022-08-26T17:46:38.134Z,97050.66
2022-08-26T17:51:41.920Z,97011.94
2022-08-26T17:56:45.005Z,97068.19
2022-08-26T18:01:51.410Z,97073.28
2022-08-26T18:06:54.426Z,97075.84
2022-08-26T18:11:57.926Z,97080.56
2022-08-26T18:17:01.323Z,97092.81
2022-08-26T18:22:04.546Z,97076.03
2022-08-26T18:27:07.808Z,97114.56
2022-08-26T18:32:11.189Z,97110.84
2022-08-26T18:37:15.136Z,96892.94
2022-08-26T18:42:18.179Z,97103.09
2022-08-26T18:47:21.758Z,97101.09
2022-08-26T18:52:24.932Z,96996.16
2022-08-26T18:57:28.311Z,97099.03
2022-08-26T19:02:31.687Z,97095.09
2022-08-26T19:07:39.387Z,97107.78
2022-08-26T19:12:43.295Z,97101.31
2022-08-26T19:17:47.090Z,97096.28
2022-08-26T19:22:50.262Z,97110.16
2022-08-26T19:27:53.631Z,97104.34
2022-08-26T19:32:56.949Z,97098.50
2022-08-26T19:38:04.229Z,97094.06
2022-08-26T19:43:08.045Z,97101.19
2022-08-26T19:48:12.089Z,97109.25
2022-08-26T19:53:16.183Z,97090.84
2022-08-26T19:58:20.131Z,97090.75
2022-08-26T20:03:24.647Z,97088.97
2022-08-26T20:08:29.385Z,97046.19
2022-08-26T20:13:33.999Z,97019.28
2022-08-26T20:18:55.402Z,96954.28
2022-08-26T20:24:05.207Z,97104.06
2022-08-26T20:29:09.905Z,97095.44
2022-08-26T20:34:14.858Z,97103.25
2022-08-26T20:39:21.700Z,97099.78
2022-08-26T20:44:25.527Z,97074.25
2022-08-26T20:49:29.510Z,97106.63
2022-08-26T20:54:33.061Z,97102.44
2022-08-26T20:59:36.293Z,97089.22
2022-08-26T21:04:40.190Z,97101.56
2022-08-26T21:09:43.322Z,97026.06
2022-08-26T21:14:49.547Z,96921.72
2022-08-26T21:19:52.941Z,97092.31
2022-08-26T21:24:56.286Z,97083.59
2022-08-26T21:29:59.679Z,97087.69
2022-08-26T21:35:03.142Z,97085.69
2022-08-26T21:40:08.286Z,97084.28
2022-08-26T21:45:11.735Z,97079.34
2022-08-26T21:50:14.883Z,97049.56
2022-08-26T21:55:18.069Z,97066.00
2022-08-26T22:00:21.336Z,97092.44
2022-08-26T22:05:24.377Z,96985.41
2022-08-26T22:10:27.514Z,97098.38
2022-08-26T22:15:32.607Z,97093.44
2022-08-26T22:20:36.767Z,97075.50
2022-08-26T22:25:40.176Z,97054.91
2022-08-26T22:30:45.350Z,96994.81
2022-08-26T22:35:51.479Z,97068.38
2022-08-26T22:40:56.922Z,97061.78
2022-08-26T22:46:00.464Z,97004.41
2022-08-26T22:51:04.482Z,97059.88
2022-08-26T22:56:08.233Z,97052.72
2022-08-26T23:01:11.413Z,97042.72
2022-08-26T23:06:15.040Z,97020.38
2022-08-26T23:11:18.249Z,97041.81
2022-08-26T23:16:22.032Z,97022.03
2022-08-26T23:21:25.520Z,97050.22
2022-08-26T23:26:29.158Z,96971.66
2022-08-26T23:31:32.381Z,96961.16
2022-08-26T23:36:35.511Z,96973.56
2022-08-26T23:41:39.230Z,97045.28
2022-08-26T23:46:42.324Z,97017.06
2022-08-26T23:52:03.958Z,97010.31
2022-08-26T23:57:08.814Z,97037.63
